North Windham, Connecticut
Current Conditions -  °F | °C
As of 5:52 PM on Monday 20 Oct 2014 (Local Time) from KIJD Reporting Station
Clear Clear  
Wind Chill: 53°   Ceiling: Unl
Heat Index: 53°   Visibility: 10mi
Dew Point: 37°   Wind: 5mph
Humidity: 55%   Direction: 180°S
Pressure: 29.99"   Gusts: NA
Location:  41.75°N, 72.15°W
Report Text: KIJD 202152Z AUTO 18004KT 10SM CLR 12/03 A2999 RMK AO2 SLP157 T01170028
Loading
Personal Weather Stations






























Interactive Weather Map
Tropical Storm Tracking
New forecast layout! Learn more

10-Day Weather Forecast

Advertisements
Track Severe Weather on mobile